sensor_id;sensor_type;location;lat;lon;timestamp;P1;durP1;ratioP1;P2;durP2;ratioP2
38909;SDS011;24676;51.360;12.354;2022-08-01T04:27:06;2.35;;;1.48;;
38909;SDS011;24676;51.360;12.354;2022-08-01T04:29:55;0.93;;;0.88;;
38909;SDS011;24676;51.360;12.354;2022-08-01T04:32:43;0.93;;;0.55;;
38909;SDS011;24676;51.360;12.354;2022-08-01T04:35:30;1.10;;;0.93;;
38909;SDS011;24676;51.360;12.354;2022-08-01T04:38:17;1.23;;;1.17;;
38909;SDS011;24676;51.360;12.354;2022-08-01T04:41:04;0.80;;;0.65;;
38909;SDS011;24676;51.360;12.354;2022-08-01T04:43:50;1.58;;;0.98;;
38909;SDS011;24676;51.360;12.354;2022-08-01T04:46:35;1.15;;;0.90;;
38909;SDS011;24676;51.360;12.354;2022-08-01T04:49:21;0.85;;;0.82;;
38909;SDS011;24676;51.360;12.354;2022-08-01T04:52:05;1.20;;;0.70;;
38909;SDS011;24676;51.360;12.354;2022-08-01T04:54:50;0.57;;;0.57;;
38909;SDS011;24676;51.360;12.354;2022-08-01T04:57:34;1.67;;;0.70;;
38909;SDS011;24676;51.360;12.354;2022-08-01T05:00:20;4.05;;;1.95;;
38909;SDS011;24676;51.360;12.354;2022-08-01T05:03:05;1.20;;;1.10;;
38909;SDS011;24676;51.360;12.354;2022-08-01T05:05:49;0.90;;;0.90;;
38909;SDS011;24676;51.360;12.354;2022-08-01T05:08:33;6.30;;;0.98;;
38909;SDS011;24676;51.360;12.354;2022-08-01T05:11:19;0.57;;;0.57;;
38909;SDS011;24676;51.360;12.354;2022-08-01T05:14:05;1.60;;;1.50;;
38909;SDS011;24676;51.360;12.354;2022-08-01T05:16:50;1.00;;;0.90;;
38909;SDS011;24676;51.360;12.354;2022-08-01T05:19:35;0.93;;;0.90;;
38909;SDS011;24676;51.360;12.354;2022-08-01T05:22:20;0.98;;;0.98;;
38909;SDS011;24676;51.360;12.354;2022-08-01T05:25:06;0.75;;;0.70;;
38909;SDS011;24676;51.360;12.354;2022-08-01T05:27:50;0.70;;;0.70;;
38909;SDS011;24676;51.360;12.354;2022-08-01T05:30:34;1.42;;;0.80;;
38909;SDS011;24676;51.360;12.354;2022-08-01T05:33:19;0.68;;;0.68;;
38909;SDS011;24676;51.360;12.354;2022-08-01T05:36:04;1.33;;;0.93;;
38909;SDS011;24676;51.360;12.354;2022-08-01T05:38:48;0.93;;;0.93;;
38909;SDS011;24676;51.360;12.354;2022-08-01T05:41:32;0.80;;;0.80;;
38909;SDS011;24676;51.360;12.354;2022-08-01T05:44:17;0.90;;;0.52;;
38909;SDS011;24676;51.360;12.354;2022-08-01T05:47:01;0.85;;;0.60;;
38909;SDS011;24676;51.360;12.354;2022-08-01T05:49:46;2.85;;;0.73;;
38909;SDS011;24676;51.360;12.354;2022-08-01T05:52:30;1.13;;;0.73;;
38909;SDS011;24676;51.360;12.354;2022-08-01T05:55:14;1.50;;;0.75;;
38909;SDS011;24676;51.360;12.354;2022-08-01T05:57:58;0.70;;;0.63;;
38909;SDS011;24676;51.360;12.354;2022-08-01T06:00:42;0.52;;;0.52;;
38909;SDS011;24676;51.360;12.354;2022-08-01T06:03:27;0.45;;;0.45;;
38909;SDS011;24676;51.360;12.354;2022-08-01T06:06:14;0.50;;;0.50;;
38909;SDS011;24676;51.360;12.354;2022-08-01T06:08:59;1.00;;;0.63;;
38909;SDS011;24676;51.360;12.354;2022-08-01T06:11:43;0.80;;;0.65;;
38909;SDS011;24676;51.360;12.354;2022-08-01T06:14:27;0.47;;;0.43;;
38909;SDS011;24676;51.360;12.354;2022-08-01T06:17:11;1.65;;;0.68;;
38909;SDS011;24676;51.360;12.354;2022-08-01T06:19:56;0.73;;;0.50;;
38909;SDS011;24676;51.360;12.354;2022-08-01T06:22:40;1.75;;;1.65;;
38909;SDS011;24676;51.360;12.354;2022-08-01T06:25:24;0.68;;;0.68;;
38909;SDS011;24676;51.360;12.354;2022-08-01T06:28:09;0.40;;;0.40;;
38909;SDS011;24676;51.360;12.354;2022-08-01T06:30:53;1.27;;;0.47;;
38909;SDS011;24676;51.360;12.354;2022-08-01T06:33:38;0.90;;;0.80;;
38909;SDS011;24676;51.360;12.354;2022-08-01T06:36:22;2.75;;;0.60;;
38909;SDS011;24676;51.360;12.354;2022-08-01T06:39:06;0.63;;;0.40;;
38909;SDS011;24676;51.360;12.354;2022-08-01T06:41:50;0.40;;;0.40;;
38909;SDS011;24676;51.360;12.354;2022-08-01T06:44:35;0.30;;;0.30;;
38909;SDS011;24676;51.360;12.354;2022-08-01T06:47:19;1.98;;;0.38;;
38909;SDS011;24676;51.360;12.354;2022-08-01T06:50:04;0.20;;;0.20;;
38909;SDS011;24676;51.360;12.354;2022-08-01T06:52:50;0.65;;;0.32;;
38909;SDS011;24676;51.360;12.354;2022-08-01T06:55:34;1.15;;;0.40;;
38909;SDS011;24676;51.360;12.354;2022-08-01T06:58:18;0.32;;;0.32;;
38909;SDS011;24676;51.360;12.354;2022-08-01T07:01:03;0.28;;;0.28;;
38909;SDS011;24676;51.360;12.354;2022-08-01T07:03:49;0.47;;;0.30;;
38909;SDS011;24676;51.360;12.354;2022-08-01T07:06:34;0.40;;;0.40;;
38909;SDS011;24676;51.360;12.354;2022-08-01T07:09:18;0.47;;;0.47;;
38909;SDS011;24676;51.360;12.354;2022-08-01T07:12:03;0.30;;;0.30;;
38909;SDS011;24676;51.360;12.354;2022-08-01T07:14:47;0.47;;;0.47;;
38909;SDS011;24676;51.360;12.354;2022-08-01T07:17:31;1.00;;;0.30;;
38909;SDS011;24676;51.360;12.354;2022-08-01T07:20:16;0.40;;;0.35;;
38909;SDS011;24676;51.360;12.354;2022-08-01T07:23:00;0.47;;;0.47;;
38909;SDS011;24676;51.360;12.354;2022-08-01T07:25:44;0.30;;;0.30;;
38909;SDS011;24676;51.360;12.354;2022-08-01T07:28:29;0.80;;;0.45;;
38909;SDS011;24676;51.360;12.354;2022-08-01T07:31:14;1.85;;;0.20;;
38909;SDS011;24676;51.360;12.354;2022-08-01T07:33:58;0.28;;;0.20;;
38909;SDS011;24676;51.360;12.354;2022-08-01T07:36:42;0.10;;;0.10;;
38909;SDS011;24676;51.360;12.354;2022-08-01T07:39:29;0.38;;;0.20;;
38909;SDS011;24676;51.360;12.354;2022-08-01T07:42:14;0.57;;;0.30;;
38909;SDS011;24676;51.360;12.354;2022-08-01T07:44:58;0.13;;;0.13;;
38909;SDS011;24676;51.360;12.354;2022-08-01T07:47:42;2.13;;;0.22;;
38909;SDS011;24676;51.360;12.354;2022-08-01T07:50:26;0.57;;;0.40;;
38909;SDS011;24676;51.360;12.354;2022-08-01T07:53:10;0.50;;;0.22;;
38909;SDS011;24676;51.360;12.354;2022-08-01T07:55:55;0.20;;;0.20;;
38909;SDS011;24676;51.360;12.354;2022-08-01T07:58:39;0.20;;;0.15;;
38909;SDS011;24676;51.360;12.354;2022-08-01T08:01:23;0.77;;;0.77;;
38909;SDS011;24676;51.360;12.354;2022-08-01T08:04:07;0.25;;;0.25;;
38909;SDS011;24676;51.360;12.354;2022-08-01T08:06:51;0.52;;;0.25;;
38909;SDS011;24676;51.360;12.354;2022-08-01T08:09:36;0.13;;;0.13;;
38909;SDS011;24676;51.360;12.354;2022-08-01T08:12:20;0.50;;;0.32;;
38909;SDS011;24676;51.360;12.354;2022-08-01T08:15:05;0.00;;;0.00;;
38909;SDS011;24676;51.360;12.354;2022-08-01T08:17:49;0.10;;;0.10;;
38909;SDS011;24676;51.360;12.354;2022-08-01T08:20:33;0.17;;;0.10;;
38909;SDS011;24676;51.360;12.354;2022-08-01T08:23:18;0.22;;;0.20;;
38909;SDS011;24676;51.360;12.354;2022-08-01T08:34:36;0.73;;;0.10;;
38909;SDS011;24676;51.360;12.354;2022-08-01T08:40:04;0.68;;;0.38;;
38909;SDS011;24676;51.360;12.354;2022-08-01T08:42:49;0.20;;;0.20;;
38909;SDS011;24676;51.360;12.354;2022-08-01T08:45:34;0.20;;;0.10;;
38909;SDS011;24676;51.360;12.354;2022-08-01T08:48:19;0.70;;;0.30;;
38909;SDS011;24676;51.360;12.354;2022-08-01T09:32:29;0.00;;;0.00;;
38909;SDS011;24676;51.360;12.354;2022-08-01T09:35:47;0.00;;;0.00;;
38909;SDS011;24676;51.360;12.354;2022-08-01T09:38:28;0.00;;;0.00;;
38909;SDS011;24676;51.360;12.354;2022-08-01T09:41:12;3.53;;;0.10;;
38909;SDS011;24676;51.360;12.354;2022-08-01T09:43:56;0.57;;;0.25;;
38909;SDS011;24676;51.360;12.354;2022-08-01T09:57:56;0.20;;;0.20;;
38909;SDS011;24676;51.360;12.354;2022-08-01T10:28:24;0.30;;;0.30;;
38909;SDS011;24676;51.360;12.354;2022-08-01T10:33:55;0.38;;;0.20;;
38909;SDS011;24676;51.360;12.354;2022-08-01T10:42:12;0.40;;;0.40;;
38909;SDS011;24676;51.360;12.354;2022-08-01T10:44:57;0.30;;;0.30;;
38909;SDS011;24676;51.360;12.354;2022-08-01T10:47:48;0.63;;;0.63;;
38909;SDS011;24676;51.360;12.354;2022-08-01T10:50:41;0.52;;;0.30;;
38909;SDS011;24676;51.360;12.354;2022-08-01T10:53:32;0.30;;;0.30;;
38909;SDS011;24676;51.360;12.354;2022-08-01T10:56:16;0.45;;;0.40;;
38909;SDS011;24676;51.360;12.354;2022-08-01T11:01:56;0.88;;;0.60;;
38909;SDS011;24676;51.360;12.354;2022-08-01T11:22:08;0.10;;;0.10;;
38909;SDS011;24676;51.360;12.354;2022-08-01T11:24:55;0.77;;;0.77;;
38909;SDS011;24676;51.360;12.354;2022-08-01T11:27:43;1.05;;;0.57;;
38909;SDS011;24676;51.360;12.354;2022-08-01T11:30:27;0.30;;;0.30;;
38909;SDS011;24676;51.360;12.354;2022-08-01T11:33:13;0.32;;;0.32;;
38909;SDS011;24676;51.360;12.354;2022-08-01T11:41:48;0.20;;;0.20;;
38909;SDS011;24676;51.360;12.354;2022-08-01T11:44:33;1.30;;;0.22;;
38909;SDS011;24676;51.360;12.354;2022-08-01T11:53:12;0.68;;;0.68;;
38909;SDS011;24676;51.360;12.354;2022-08-01T11:56:00;0.73;;;0.73;;
38909;SDS011;24676;51.360;12.354;2022-08-01T11:58:44;0.45;;;0.45;;
38909;SDS011;24676;51.360;12.354;2022-08-01T12:04:13;0.50;;;0.40;;
38909;SDS011;24676;51.360;12.354;2022-08-01T12:07:10;0.77;;;0.50;;
38909;SDS011;24676;51.360;12.354;2022-08-01T12:09:57;0.30;;;0.30;;
38909;SDS011;24676;51.360;12.354;2022-08-01T12:21:07;0.35;;;0.20;;
38909;SDS011;24676;51.360;12.354;2022-08-01T12:24:01;0.98;;;0.30;;
38909;SDS011;24676;51.360;12.354;2022-08-01T13:00:24;0.30;;;0.30;;
38909;SDS011;24676;51.360;12.354;2022-08-01T13:03:11;0.47;;;0.47;;
38909;SDS011;24676;51.360;12.354;2022-08-01T13:34:17;0.20;;;0.20;;
38909;SDS011;24676;51.360;12.354;2022-08-01T13:37:01;0.35;;;0.35;;
38909;SDS011;24676;51.360;12.354;2022-08-01T13:39:46;0.40;;;0.40;;
38909;SDS011;24676;51.360;12.354;2022-08-01T13:58:56;0.73;;;0.30;;
38909;SDS011;24676;51.360;12.354;2022-08-01T14:01:40;0.40;;;0.20;;
38909;SDS011;24676;51.360;12.354;2022-08-01T14:04:25;0.13;;;0.13;;
38909;SDS011;24676;51.360;12.354;2022-08-01T14:07:09;0.30;;;0.30;;
38909;SDS011;24676;51.360;12.354;2022-08-01T14:09:54;0.20;;;0.20;;
38909;SDS011;24676;51.360;12.354;2022-08-01T14:12:38;0.20;;;0.20;;
38909;SDS011;24676;51.360;12.354;2022-08-01T14:15:23;0.35;;;0.35;;
38909;SDS011;24676;51.360;12.354;2022-08-01T14:18:08;0.43;;;0.38;;
38909;SDS011;24676;51.360;12.354;2022-08-01T14:20:53;0.52;;;0.52;;
38909;SDS011;24676;51.360;12.354;2022-08-01T14:23:37;0.20;;;0.20;;
38909;SDS011;24676;51.360;12.354;2022-08-01T14:26:21;0.30;;;0.30;;
38909;SDS011;24676;51.360;12.354;2022-08-01T14:29:06;0.20;;;0.20;;
38909;SDS011;24676;51.360;12.354;2022-08-01T14:31:50;0.90;;;0.55;;
38909;SDS011;24676;51.360;12.354;2022-08-01T14:34:35;0.30;;;0.30;;
38909;SDS011;24676;51.360;12.354;2022-08-01T14:37:19;0.75;;;0.50;;
38909;SDS011;24676;51.360;12.354;2022-08-01T14:40:04;0.25;;;0.22;;
38909;SDS011;24676;51.360;12.354;2022-08-01T14:42:52;0.40;;;0.40;;
38909;SDS011;24676;51.360;12.354;2022-08-01T14:45:36;0.50;;;0.28;;
38909;SDS011;24676;51.360;12.354;2022-08-01T14:48:21;0.38;;;0.38;;
38909;SDS011;24676;51.360;12.354;2022-08-01T14:51:05;0.43;;;0.43;;
38909;SDS011;24676;51.360;12.354;2022-08-01T14:53:50;0.32;;;0.32;;
38909;SDS011;24676;51.360;12.354;2022-08-01T14:56:34;0.20;;;0.20;;
38909;SDS011;24676;51.360;12.354;2022-08-01T19:05:54;0.17;;;0.17;;
38909;SDS011;24676;51.360;12.354;2022-08-01T19:08:38;0.35;;;0.05;;
38909;SDS011;24676;51.360;12.354;2022-08-01T19:11:23;0.50;;;0.40;;
38909;SDS011;24676;51.360;12.354;2022-08-01T19:14:07;0.30;;;0.30;;
38909;SDS011;24676;51.360;12.354;2022-08-01T19:16:52;0.52;;;0.20;;
38909;SDS011;24676;51.360;12.354;2022-08-01T19:19:36;0.80;;;0.40;;
38909;SDS011;24676;51.360;12.354;2022-08-01T19:22:20;0.40;;;0.40;;
38909;SDS011;24676;51.360;12.354;2022-08-01T19:25:04;1.00;;;1.00;;
38909;SDS011;24676;51.360;12.354;2022-08-01T19:27:49;0.50;;;0.40;;
38909;SDS011;24676;51.360;12.354;2022-08-01T19:30:33;0.30;;;0.30;;
